Time;durP1;ratioP1;P1;durP2;ratioP2;P2;SDS_P1;SDS_P2;PMS_P1;PMS_P2;Temp;Humidity;BMP_temperature;BMP_pressure;BME280_temperature;BME280_humidity;BME280_pressure;Samples;Min_cycle;Max_cycle;Signal;HPM_P1;HPM_P2
2023/11/05 00:00:25;;;;;;;7.20;1.58;;;10.30;90.90;;;;;;5031787;28;20432;-27
2023/11/05 00:02:51;;;;;;;4.00;1.40;;;10.30;90.90;;;;;;5033194;28;20057;-31
2023/11/05 00:05:16;;;;;;;5.13;1.63;;;10.30;91.00;;;;;;5033504;28;20025;-29
2023/11/05 00:07:42;;;;;;;6.22;1.80;;;10.30;91.00;;;;;;5033444;28;20022;-28
2023/11/05 00:10:08;;;;;;;7.45;1.50;;;10.30;91.00;;;;;;5033377;28;20386;-28
2023/11/05 00:12:34;;;;;;;6.20;1.75;;;10.30;91.00;;;;;;5033282;28;20033;-28
2023/11/05 00:15:00;;;;;;;7.10;1.70;;;10.20;91.00;;;;;;5032934;28;20035;-29
2023/11/05 00:17:25;;;;;;;7.13;1.50;;;10.30;91.00;;;;;;5032923;28;20466;-26
2023/11/05 00:19:51;;;;;;;4.93;1.50;;;10.30;91.00;;;;;;5032852;28;20466;-28
2023/11/05 00:22:18;;;;;;;6.07;1.65;;;10.40;91.00;;;;;;5032710;28;20036;-30
2023/11/05 00:24:43;;;;;;;6.60;2.00;;;10.40;91.00;;;;;;5032866;28;20031;-27
2023/11/05 00:27:09;;;;;;;6.45;1.80;;;10.50;90.90;;;;;;5032736;28;20034;-28
2023/11/05 00:29:35;;;;;;;7.65;1.77;;;10.50;90.80;;;;;;5032739;28;20041;-27
2023/11/05 00:32:00;;;;;;;6.20;1.40;;;10.50;90.80;;;;;;5031363;28;20120;-27
2023/11/05 00:34:26;;;;;;;7.15;1.90;;;10.60;90.80;;;;;;5032726;28;20095;-29
2023/11/05 00:36:51;;;;;;;8.05;1.60;;;10.60;90.70;;;;;;5032493;28;20021;-29
2023/11/05 00:39:17;;;;;;;7.35;1.75;;;10.60;90.70;;;;;;5032652;28;20029;-31
2023/11/05 00:41:42;;;;;;;5.93;1.60;;;10.60;90.70;;;;;;5031092;28;20115;-30
2023/11/05 00:44:08;;;;;;;6.38;1.40;;;10.70;90.70;;;;;;5032295;28;20068;-34
2023/11/05 00:46:34;;;;;;;5.40;1.30;;;10.70;90.70;;;;;;5032652;28;20060;-31
2023/11/05 00:48:59;;;;;;;7.90;1.50;;;10.70;90.70;;;;;;5032402;28;20030;-30
2023/11/05 00:51:25;;;;;;;6.32;1.45;;;10.70;90.70;;;;;;5032295;28;20045;-29
2023/11/05 00:53:50;;;;;;;6.20;1.77;;;10.70;90.70;;;;;;5032332;28;20026;-29
2023/11/05 00:56:16;;;;;;;7.07;2.00;;;10.70;90.70;;;;;;5032473;28;20079;-31
2023/11/05 00:58:42;;;;;;;5.50;1.45;;;10.60;90.60;;;;;;5031550;28;20354;-27
2023/11/05 01:01:08;;;;;;;7.65;1.42;;;10.60;90.70;;;;;;5032316;28;20151;-33
2023/11/05 01:03:33;;;;;;;6.38;1.70;;;10.60;90.70;;;;;;5032091;28;20030;-27
2023/11/05 01:05:59;;;;;;;5.25;1.40;;;10.60;90.70;;;;;;5032311;28;20021;-29
2023/11/05 01:08:24;;;;;;;7.75;1.75;;;10.70;90.70;;;;;;5032082;28;20017;-27
2023/11/05 01:10:50;;;;;;;6.53;1.30;;;10.70;90.70;;;;;;5031884;28;20122;-29
2023/11/05 01:13:16;;;;;;;5.18;1.45;;;10.70;90.70;;;;;;5032170;28;20022;-28
2023/11/05 01:15:41;;;;;;;4.68;1.40;;;10.70;90.60;;;;;;5032406;28;20018;-27
2023/11/05 01:18:07;;;;;;;6.32;1.55;;;10.70;90.60;;;;;;5030420;28;20108;-28
2023/11/05 01:20:32;;;;;;;5.53;1.40;;;10.70;90.50;;;;;;5031854;28;20026;-26
2023/11/05 01:22:58;;;;;;;6.45;1.40;;;10.80;90.50;;;;;;5032284;28;20026;-27
2023/11/05 01:25:24;;;;;;;8.15;1.85;;;10.80;90.50;;;;;;5032193;28;20041;-28
2023/11/05 01:27:49;;;;;;;4.03;1.27;;;10.80;90.40;;;;;;5032028;28;20057;-29
2023/11/05 01:30:15;;;;;;;4.57;1.40;;;10.80;90.40;;;;;;5031681;28;20482;-28
2023/11/05 01:32:40;;;;;;;5.30;1.40;;;10.80;90.40;;;;;;5030738;28;20041;-27
2023/11/05 01:35:06;;;;;;;4.38;1.50;;;10.80;90.40;;;;;;5031941;28;20029;-27
2023/11/05 01:37:32;;;;;;;6.22;1.48;;;10.90;90.40;;;;;;5032048;28;20029;-28
2023/11/05 01:39:57;;;;;;;7.45;1.63;;;10.90;90.40;;;;;;5031868;28;20485;-31
2023/11/05 01:42:23;;;;;;;5.65;1.75;;;10.90;90.40;;;;;;5031715;28;20362;-29
2023/11/05 01:44:49;;;;;;;6.25;1.73;;;10.90;90.40;;;;;;5032099;28;20048;-32
2023/11/05 01:47:15;;;;;;;5.18;1.70;;;10.90;90.40;;;;;;5031694;28;20023;-32
2023/11/05 01:49:41;;;;;;;6.30;1.38;;;10.90;90.40;;;;;;5032042;28;20021;-30
2023/11/05 01:52:08;;;;;;;8.00;1.50;;;10.90;90.50;;;;;;5031989;28;20111;-29
2023/11/05 01:54:34;;;;;;;6.22;1.40;;;10.90;90.40;;;;;;5031752;28;20418;-29
2023/11/05 01:57:00;;;;;;;8.05;1.40;;;10.90;90.40;;;;;;5031718;28;20179;-32
2023/11/05 01:59:26;;;;;;;8.18;1.88;;;10.90;90.40;;;;;;5031650;28;20025;-35
2023/11/05 02:01:53;;;;;;;4.90;1.50;;;10.80;90.40;;;;;;5031379;28;20438;-29
2023/11/05 02:04:20;;;;;;;5.85;1.55;;;10.80;90.40;;;;;;5031471;28;20100;-33
2023/11/05 02:06:46;;;;;;;5.72;1.48;;;10.80;90.50;;;;;;5031706;28;20529;-28
2023/11/05 02:09:11;;;;;;;7.80;1.67;;;10.80;90.40;;;;;;5032298;28;20052;-28
2023/11/05 02:11:37;;;;;;;3.72;1.42;;;10.80;90.50;;;;;;5035214;28;20465;-29
2023/11/05 02:14:03;;;;;;;3.88;1.25;;;10.80;90.50;;;;;;5035303;28;20037;-27
2023/11/05 02:16:31;;;;;;;4.88;1.67;;;10.80;90.50;;;;;;5035064;28;20109;-27
2023/11/05 02:18:58;;;;;;;7.38;1.50;;;10.80;90.50;;;;;;5034988;28;20029;-32
2023/11/05 02:21:27;;;;;;;7.30;1.55;;;10.80;90.50;;;;;;5035227;28;20430;-28
2023/11/05 02:23:52;;;;;;;6.75;1.45;;;10.80;90.50;;;;;;5035107;28;20028;-30
2023/11/05 02:26:18;;;;;;;8.93;1.25;;;10.80;90.50;;;;;;5035174;28;20026;-32
2023/11/05 02:28:43;;;;;;;5.00;1.30;;;10.80;90.50;;;;;;5035042;28;20495;-28
2023/11/05 02:31:09;;;;;;;5.00;1.17;;;10.80;90.50;;;;;;5034868;28;20057;-33
2023/11/05 02:33:41;;;;;;;6.35;1.25;;;10.80;90.50;;;;;;5033765;28;20123;-27
2023/11/05 02:36:07;;;;;;;4.72;1.30;;;10.80;90.50;;;;;;5034903;28;20080;-28
2023/11/05 02:38:33;;;;;;;7.00;1.55;;;10.80;90.50;;;;;;5034724;28;20072;-28
2023/11/05 02:40:58;;;;;;;5.43;1.40;;;10.80;90.50;;;;;;5034662;28;20107;-28
2023/11/05 02:43:24;;;;;;;8.05;1.88;;;10.80;90.60;;;;;;5034724;28;20033;-28
2023/11/05 02:45:49;;;;;;;7.85;1.90;;;10.80;90.60;;;;;;5034650;28;20028;-30
2023/11/05 02:48:15;;;;;;;3.70;1.23;;;10.80;90.60;;;;;;5034885;28;20029;-33
2023/11/05 02:50:40;;;;;;;8.40;1.40;;;10.80;90.60;;;;;;5034336;28;20029;-29
2023/11/05 02:53:08;;;;;;;3.63;1.20;;;10.80;90.60;;;;;;5034605;28;20029;-31
2023/11/05 02:55:33;;;;;;;6.75;1.17;;;10.80;90.60;;;;;;5033145;28;20055;-36
2023/11/05 02:57:59;;;;;;;6.97;1.40;;;10.70;90.60;;;;;;5034427;28;20108;-29
2023/11/05 03:00:25;;;;;;;4.90;1.38;;;10.80;90.70;;;;;;5033076;28;20397;-28
2023/11/05 03:02:50;;;;;;;5.07;1.15;;;10.80;90.70;;;;;;5034449;28;20429;-29
2023/11/05 03:05:16;;;;;;;5.10;1.40;;;10.80;90.70;;;;;;5032988;28;20449;-31
2023/11/05 03:07:42;;;;;;;3.83;1.20;;;10.80;90.70;;;;;;5034256;28;20331;-28
2023/11/05 03:10:07;;;;;;;3.25;1.08;;;10.80;90.70;;;;;;5034295;28;20029;-30
2023/11/05 03:12:34;;;;;;;5.03;1.10;;;10.80;90.70;;;;;;5034457;28;20078;-28
2023/11/05 03:15:00;;;;;;;6.95;1.70;;;10.80;91.00;;;;;;5034335;28;20157;-27
2023/11/05 03:17:25;;;;;;;5.07;1.35;;;10.80;90.70;;;;;;5033899;28;20545;-29
2023/11/05 03:19:51;;;;;;;3.35;1.10;;;10.80;90.80;;;;;;5033907;28;20021;-29
2023/11/05 03:22:17;;;;;;;4.25;1.20;;;10.80;90.80;;;;;;5032965;28;20489;-26
2023/11/05 03:24:45;;;;;;;4.95;0.90;;;10.70;90.80;;;;;;5034124;28;20104;-30
2023/11/05 03:27:10;;;;;;;4.35;1.13;;;10.80;90.90;;;;;;5033717;28;20367;-30
2023/11/05 03:29:36;;;;;;;5.97;1.10;;;10.80;90.90;;;;;;5033945;28;20045;-26
2023/11/05 03:32:02;;;;;;;4.90;1.10;;;10.80;90.90;;;;;;5033392;28;20057;-27
2023/11/05 03:34:28;;;;;;;5.38;1.13;;;10.80;90.90;;;;;;5033803;28;20394;-27
2023/11/05 03:36:53;;;;;;;4.65;1.30;;;10.80;90.90;;;;;;5033510;28;20041;-26
2023/11/05 03:39:19;;;;;;;3.97;1.10;;;10.80;91.00;;;;;;5033222;28;20544;-28
2023/11/05 03:41:44;;;;;;;5.50;1.27;;;10.80;91.00;;;;;;5032981;28;20444;-26
2023/11/05 03:44:10;;;;;;;3.85;1.10;;;10.70;91.00;;;;;;5033345;28;20424;-26
2023/11/05 03:46:39;;;;;;;3.63;1.10;;;10.80;91.00;;;;;;5033163;28;20022;-28
2023/11/05 03:49:05;;;;;;;3.92;1.10;;;10.80;91.00;;;;;;5032862;28;20095;-26
2023/11/05 03:51:30;;;;;;;3.40;1.00;;;10.80;91.10;;;;;;5031777;28;20029;-26
2023/11/05 03:53:56;;;;;;;5.90;1.33;;;10.80;91.00;;;;;;5033357;28;20021;-27
2023/11/05 03:56:22;;;;;;;3.58;1.00;;;10.80;91.10;;;;;;5033362;28;20524;-27
2023/11/05 03:58:47;;;;;;;3.63;0.90;;;10.80;91.00;;;;;;5033064;28;20557;-30
2023/11/05 04:01:17;;;;;;;3.60;0.85;;;10.80;91.10;;;;;;5033157;28;20022;-27
2023/11/05 04:03:42;;;;;;;3.40;0.90;;;10.80;91.10;;;;;;5033223;28;20025;-27
2023/11/05 04:06:08;;;;;;;2.45;1.17;;;10.80;91.10;;;;;;5033282;28;20462;-28
2023/11/05 04:08:34;;;;;;;3.67;1.00;;;10.90;91.10;;;;;;5032954;28;20033;-29
2023/11/05 04:10:59;;;;;;;3.20;0.80;;;10.90;91.10;;;;;;5032913;28;20018;-26
2023/11/05 04:13:25;;;;;;;3.38;0.80;;;10.90;91.10;;;;;;5032840;28;20034;-28
2023/11/05 04:15:50;;;;;;;2.45;0.70;;;10.90;91.10;;;;;;5033034;28;20069;-29
2023/11/05 04:18:16;;;;;;;2.17;1.00;;;10.90;91.10;;;;;;5032774;28;20030;-26
2023/11/05 04:20:42;;;;;;;1.42;0.52;;;10.90;91.10;;;;;;5032622;28;20035;-27
2023/11/05 04:23:07;;;;;;;1.27;0.80;;;10.80;91.10;;;;;;5032764;28;20091;-27
2023/11/05 04:25:33;;;;;;;1.73;0.70;;;10.80;91.10;;;;;;5032895;28;20108;-28
2023/11/05 04:27:59;;;;;;;2.90;0.82;;;10.80;91.10;;;;;;5032652;28;20084;-29
2023/11/05 04:30:24;;;;;;;3.55;0.80;;;10.80;91.20;;;;;;5031275;28;20052;-25
2023/11/05 04:32:50;;;;;;;1.95;0.73;;;10.80;91.20;;;;;;5032703;28;20022;-28
2023/11/05 04:35:15;;;;;;;3.80;1.35;;;10.80;91.20;;;;;;5032799;28;20148;-26
2023/11/05 04:37:41;;;;;;;3.25;1.00;;;10.80;91.20;;;;;;5032647;28;20033;-28
2023/11/05 04:40:07;;;;;;;2.03;0.57;;;10.90;91.20;;;;;;5031008;28;20021;-30
2023/11/05 04:42:33;;;;;;;1.48;0.88;;;10.90;91.20;;;;;;5032215;28;20493;-27
2023/11/05 04:44:58;;;;;;;3.20;0.90;;;10.90;91.20;;;;;;5032431;28;20100;-30
2023/11/05 04:47:24;;;;;;;2.35;0.70;;;10.90;91.20;;;;;;5032394;28;20108;-27
2023/11/05 04:49:50;;;;;;;2.40;1.17;;;10.90;91.20;;;;;;5032316;28;20513;-27
2023/11/05 04:52:16;;;;;;;3.65;0.77;;;10.90;91.20;;;;;;5032332;28;20031;-28
2023/11/05 04:54:42;;;;;;;2.22;0.68;;;10.90;91.20;;;;;;5030712;28;20172;-30
2023/11/05 04:57:08;;;;;;;2.50;0.80;;;10.90;91.30;;;;;;5032076;28;20022;-33
2023/11/05 04:59:34;;;;;;;1.55;0.80;;;10.90;91.30;;;;;;5032173;28;20033;-30
2023/11/05 05:02:00;;;;;;;2.45;0.75;;;10.90;91.30;;;;;;5032010;28;20022;-32
2023/11/05 05:04:26;;;;;;;3.65;0.68;;;10.90;91.30;;;;;;5032326;28;20100;-31
2023/11/05 05:06:52;;;;;;;2.25;0.80;;;10.90;91.30;;;;;;5031978;28;20097;-35
2023/11/05 05:09:18;;;;;;;0.80;0.60;;;10.90;91.30;;;;;;5031692;28;20049;-30
2023/11/05 05:11:44;;;;;;;2.22;0.80;;;11.00;91.30;;;;;;5031642;28;20068;-31
2023/11/05 05:14:09;;;;;;;3.53;0.70;;;11.00;91.30;;;;;;5031085;28;20057;-45
2023/11/05 05:16:35;;;;;;;2.83;0.70;;;11.00;91.30;;;;;;5030897;28;20034;-46
2023/11/05 05:19:01;;;;;;;4.35;1.10;;;11.00;91.30;;;;;;5030207;28;20021;-44
2023/11/05 05:21:27;;;;;;;4.28;0.85;;;11.00;91.30;;;;;;5030300;28;20026;-40
2023/11/05 05:23:52;;;;;;;3.35;1.17;;;11.00;91.30;;;;;;5031101;28;20087;-33
2023/11/05 05:26:18;;;;;;;0.98;0.60;;;11.00;91.30;;;;;;5030988;28;20363;-46
2023/11/05 05:28:44;;;;;;;2.55;0.90;;;11.00;91.30;;;;;;5031092;28;20069;-27
2023/11/05 05:31:09;;;;;;;2.72;0.68;;;11.00;91.30;;;;;;5030956;28;20045;-28
2023/11/05 05:33:35;;;;;;;1.55;0.80;;;11.00;91.30;;;;;;5031483;28;20026;-33
2023/11/05 05:36:00;;;;;;;2.20;0.85;;;11.00;91.30;;;;;;5031418;28;20026;-27
2023/11/05 05:38:27;;;;;;;2.40;0.93;;;11.10;91.30;;;;;;5031500;28;20021;-31
2023/11/05 05:40:53;;;;;;;2.72;1.00;;;11.10;91.30;;;;;;5030994;28;20030;-35
2023/11/05 05:43:18;;;;;;;2.00;0.95;;;11.10;91.30;;;;;;5031479;28;20044;-27
2023/11/05 05:45:44;;;;;;;2.30;0.77;;;11.10;91.30;;;;;;5034073;28;20359;-27
2023/11/05 05:48:10;;;;;;;3.00;1.00;;;11.10;91.30;;;;;;5035244;28;20472;-27
2023/11/05 05:50:36;;;;;;;1.85;0.73;;;11.10;91.30;;;;;;5034967;28;20310;-27
2023/11/05 05:53:01;;;;;;;3.92;1.10;;;11.10;91.30;;;;;;5033551;28;20148;-29
2023/11/05 05:55:27;;;;;;;2.78;0.90;;;11.10;91.30;;;;;;5034951;28;20104;-43
2023/11/05 05:57:53;;;;;;;5.80;1.40;;;11.10;91.30;;;;;;5035008;28;20087;-46
2023/11/05 06:00:21;;;;;;;1.80;0.68;;;11.10;91.30;;;;;;5033423;28;20021;-43
2023/11/05 06:02:47;;;;;;;2.42;1.00;;;11.10;91.30;;;;;;5034881;28;20021;-42
2023/11/05 06:05:12;;;;;;;2.65;0.82;;;11.20;91.30;;;;;;5034788;28;20029;-44
2023/11/05 06:07:38;;;;;;;1.38;0.90;;;11.20;91.30;;;;;;5034726;28;20033;-44
2023/11/05 06:10:06;;;;;;;4.05;0.90;;;11.20;91.30;;;;;;5034636;28;20030;-44
2023/11/05 06:12:32;;;;;;;3.30;1.20;;;11.20;91.30;;;;;;5034836;28;20498;-45
2023/11/05 06:14:57;;;;;;;2.67;0.77;;;11.20;91.30;;;;;;5034943;28;20481;-43
2023/11/05 06:17:23;;;;;;;2.65;1.13;;;11.20;91.30;;;;;;5034345;28;20035;-44
2023/11/05 06:19:48;;;;;;;2.17;0.90;;;11.20;91.30;;;;;;5034780;28;20611;-43
2023/11/05 06:22:14;;;;;;;3.45;0.93;;;11.20;91.30;;;;;;5034302;28;20018;-44
2023/11/05 06:24:41;;;;;;;5.78;0.93;;;11.20;91.30;;;;;;5034339;28;20025;-44
2023/11/05 06:27:07;;;;;;;4.38;1.10;;;11.30;91.30;;;;;;5034433;28;20014;-43
2023/11/05 06:29:33;;;;;;;3.17;1.10;;;11.30;91.30;;;;;;5034253;28;20362;-44
2023/11/05 06:31:58;;;;;;;4.63;1.40;;;11.30;91.30;;;;;;5034352;28;20443;-41
2023/11/05 06:34:24;;;;;;;2.45;1.08;;;11.30;91.30;;;;;;5034139;28;20052;-43
2023/11/05 06:37:01;;;;;;;4.60;1.40;;;11.30;91.30;;;;;;5034142;28;20029;-41
2023/11/05 06:39:27;;;;;;;3.30;1.27;;;11.30;91.30;;;;;;5034153;28;20032;-43
2023/11/05 06:41:53;;;;;;;3.45;1.17;;;11.30;91.30;;;;;;5033724;28;20025;-44
2023/11/05 06:44:19;;;;;;;3.53;1.25;;;11.30;91.30;;;;;;5034032;28;20044;-42
2023/11/05 06:46:44;;;;;;;2.80;1.20;;;11.30;91.30;;;;;;5033868;28;20053;-44
2023/11/05 06:49:10;;;;;;;3.28;1.25;;;11.30;91.30;;;;;;5033858;28;20037;-43
2023/11/05 06:51:35;;;;;;;3.63;1.27;;;11.30;91.30;;;;;;5033709;28;20052;-43
2023/11/05 06:54:01;;;;;;;2.28;1.10;;;11.30;91.30;;;;;;5033844;28;20530;-44
2023/11/05 06:56:27;;;;;;;2.97;1.20;;;11.40;91.30;;;;;;5032869;28;20035;-43
2023/11/05 06:58:52;;;;;;;1.92;1.20;;;11.40;91.30;;;;;;5033704;28;20112;-45
2023/11/05 07:01:18;;;;;;;2.78;1.38;;;11.40;91.30;;;;;;5033568;28;20112;-43
2023/11/05 07:03:44;;;;;;;3.28;1.15;;;11.40;91.30;;;;;;5033903;28;20049;-45
2023/11/05 07:06:12;;;;;;;2.30;1.20;;;11.40;91.30;;;;;;5033634;28;20029;-43
2023/11/05 07:08:38;;;;;;;3.10;1.05;;;11.40;91.20;;;;;;5033608;28;20026;-41
2023/11/05 07:11:06;;;;;;;3.63;1.48;;;11.40;91.20;;;;;;5033680;28;20017;-27
2023/11/05 07:13:32;;;;;;;1.75;0.98;;;11.40;91.20;;;;;;5033480;28;20021;-28
2023/11/05 07:15:57;;;;;;;4.38;1.45;;;11.40;91.20;;;;;;5032449;28;20025;-27
2023/11/05 07:18:23;;;;;;;3.13;1.38;;;11.40;91.30;;;;;;5033144;28;20082;-27
2023/11/05 07:20:49;;;;;;;2.20;1.20;;;11.50;91.30;;;;;;5033149;28;20075;-28
2023/11/05 07:23:14;;;;;;;3.20;1.50;;;11.50;91.30;;;;;;5033367;28;20308;-28
2023/11/05 07:25:40;;;;;;;2.80;1.40;;;11.50;91.30;;;;;;5033528;28;20156;-30
2023/11/05 07:28:06;;;;;;;4.32;1.23;;;11.50;91.30;;;;;;5033597;28;20022;-29
2023/11/05 07:30:32;;;;;;;3.38;1.20;;;11.50;91.30;;;;;;5032820;28;20296;-27
2023/11/05 07:32:57;;;;;;;3.20;1.30;;;11.50;91.30;;;;;;5033472;28;20113;-27
2023/11/05 07:35:23;;;;;;;4.47;1.20;;;11.50;91.20;;;;;;5033429;28;20022;-30
2023/11/05 07:37:49;;;;;;;4.40;1.40;;;11.50;91.20;;;;;;5033116;28;20105;-28
2023/11/05 07:40:15;;;;;;;2.42;1.15;;;11.60;91.30;;;;;;5032921;28;20049;-27
2023/11/05 07:42:41;;;;;;;4.35;1.25;;;11.60;91.20;;;;;;5033154;28;20072;-28
2023/11/05 07:45:07;;;;;;;3.63;1.10;;;11.60;91.30;;;;;;5033233;28;20407;-28
2023/11/05 07:47:33;;;;;;;3.15;1.33;;;11.60;91.30;;;;;;5033032;28;20025;-27
2023/11/05 07:49:58;;;;;;;4.50;1.30;;;11.60;91.20;;;;;;5031929;28;20494;-29
2023/11/05 07:52:24;;;;;;;1.98;1.10;;;11.60;91.30;;;;;;5032741;28;20026;-27
2023/11/05 07:54:49;;;;;;;2.97;1.30;;;11.60;91.30;;;;;;5032803;28;20502;-31
2023/11/05 07:57:15;;;;;;;3.83;1.23;;;11.60;91.20;;;;;;5032584;28;20029;-28
2023/11/05 07:59:40;;;;;;;4.10;1.58;;;11.70;91.30;;;;;;5032682;28;20026;-30
2023/11/05 08:02:06;;;;;;;2.83;1.60;;;11.70;91.20;;;;;;5032277;28;20025;-27
2023/11/05 08:04:31;;;;;;;4.35;1.65;;;11.70;91.20;;;;;;5032819;28;20068;-29
2023/11/05 08:06:57;;;;;;;4.40;1.33;;;11.70;91.20;;;;;;5032385;28;20017;-26
2023/11/05 08:09:23;;;;;;;2.90;1.20;;;11.80;91.20;;;;;;5032701;28;20474;-27
2023/11/05 08:11:53;;;;;;;2.67;1.40;;;11.80;91.20;;;;;;5032586;28;20030;-30
2023/11/05 08:14:19;;;;;;;4.15;1.70;;;11.70;91.10;;;;;;5032624;28;20065;-30
2023/11/05 08:16:44;;;;;;;3.35;1.63;;;11.80;91.20;;;;;;5032264;28;20030;-27
2023/11/05 08:19:10;;;;;;;3.42;1.67;;;11.80;91.20;;;;;;5032337;28;20454;-27
2023/11/05 08:21:36;;;;;;;4.63;1.83;;;11.80;91.20;;;;;;5032189;28;20413;-27
2023/11/05 08:24:01;;;;;;;4.63;1.70;;;11.80;91.20;;;;;;5032044;28;20405;-26
2023/11/05 08:26:27;;;;;;;4.93;1.85;;;11.70;91.20;;;;;;5032284;28;20509;-26
2023/11/05 08:28:54;;;;;;;3.92;1.70;;;11.80;91.20;;;;;;5032298;28;20029;-26
2023/11/05 08:31:19;;;;;;;3.95;1.80;;;11.80;91.20;;;;;;5031856;28;20599;-28
2023/11/05 08:33:45;;;;;;;3.50;2.03;;;11.80;91.20;;;;;;5032301;28;20029;-28
2023/11/05 08:36:10;;;;;;;3.47;1.98;;;11.80;91.20;;;;;;5031749;28;20362;-27
2023/11/05 08:38:37;;;;;;;3.90;2.10;;;11.80;91.20;;;;;;5032023;28;20034;-27
2023/11/05 08:41:04;;;;;;;4.15;2.10;;;11.90;91.20;;;;;;5031681;28;20021;-28
2023/11/05 08:43:29;;;;;;;7.03;2.28;;;11.90;91.20;;;;;;5031714;28;20497;-26
2023/11/05 08:45:55;;;;;;;4.43;1.95;;;11.90;91.20;;;;;;5031722;28;20017;-27
2023/11/05 08:48:20;;;;;;;6.00;2.03;;;11.90;91.20;;;;;;5031992;28;20021;-26
2023/11/05 08:50:46;;;;;;;4.65;1.80;;;11.90;91.20;;;;;;5031998;28;20097;-29
2023/11/05 08:53:12;;;;;;;5.38;1.83;;;12.00;91.20;;;;;;5031661;28;20041;-29
2023/11/05 08:55:38;;;;;;;4.15;2.00;;;12.00;91.20;;;;;;5031794;28;20069;-29
2023/11/05 08:58:03;;;;;;;4.70;1.80;;;12.00;91.20;;;;;;5031835;28;20018;-30
2023/11/05 09:00:34;;;;;;;4.70;2.22;;;12.00;91.10;;;;;;5031503;28;20493;-32
2023/11/05 09:03:00;;;;;;;4.47;1.80;;;12.10;91.10;;;;;;5031395;28;20049;-33
2023/11/05 09:05:26;;;;;;;5.50;1.90;;;12.10;91.10;;;;;;5031649;28;20028;-31
2023/11/05 09:07:52;;;;;;;6.65;1.90;;;12.10;91.00;;;;;;5031496;28;20022;-33
2023/11/05 09:10:20;;;;;;;6.88;2.05;;;12.20;91.00;;;;;;5031486;28;20018;-31
2023/11/05 09:12:48;;;;;;;5.57;2.20;;;12.10;91.00;;;;;;5031832;28;20392;-30
2023/11/05 09:15:15;;;;;;;7.32;2.20;;;12.10;91.00;;;;;;5031682;28;20170;-34
2023/11/05 09:17:40;;;;;;;5.35;1.85;;;12.10;91.00;;;;;;5031539;28;20029;-33
2023/11/05 09:20:08;;;;;;;5.47;1.88;;;12.20;91.10;;;;;;5033557;28;20496;-30
2023/11/05 09:22:38;;;;;;;3.35;1.52;;;12.10;91.00;;;;;;5035893;28;20465;-29
2023/11/05 09:25:04;;;;;;;3.58;1.73;;;12.10;91.00;;;;;;5035412;28;20044;-32
2023/11/05 09:27:31;;;;;;;6.57;2.20;;;12.10;91.00;;;;;;5035595;28;20044;-34
2023/11/05 09:29:57;;;;;;;6.45;2.10;;;12.20;91.00;;;;;;5035548;28;20045;-29
2023/11/05 09:32:22;;;;;;;8.25;2.47;;;12.20;91.00;;;;;;5035480;28;20028;-28
2023/11/05 09:34:48;;;;;;;5.43;2.10;;;12.20;91.00;;;;;;5035724;28;20021;-30
2023/11/05 09:37:13;;;;;;;2.65;1.63;;;12.20;91.00;;;;;;5035180;28;20100;-28
2023/11/05 09:39:39;;;;;;;5.35;2.20;;;12.20;91.00;;;;;;5035624;28;20025;-28
2023/11/05 09:42:05;;;;;;;6.35;2.42;;;12.20;90.90;;;;;;5035282;28;20024;-29
2023/11/05 09:44:32;;;;;;;5.20;2.50;;;12.20;90.90;;;;;;5035254;28;20504;-28
2023/11/05 09:46:59;;;;;;;6.82;2.40;;;12.20;90.90;;;;;;5035292;28;20026;-36
2023/11/05 09:49:25;;;;;;;6.18;2.58;;;12.20;90.90;;;;;;5035119;28;20075;-26
2023/11/05 09:51:50;;;;;;;5.22;2.50;;;12.30;91.00;;;;;;5035013;28;20490;-28
2023/11/05 09:54:17;;;;;;;6.47;2.60;;;12.20;90.90;;;;;;5034077;28;20033;-28
2023/11/05 09:56:43;;;;;;;6.47;2.40;;;12.30;90.90;;;;;;5035261;28;20421;-28
2023/11/05 09:59:10;;;;;;;5.93;2.42;;;12.30;90.90;;;;;;5034875;28;20026;-28
2023/11/05 10:01:36;;;;;;;5.63;2.55;;;12.40;90.90;;;;;;5034612;28;20045;-30
2023/11/05 10:04:10;;;;;;;6.30;2.78;;;12.40;90.80;;;;;;5034783;28;20064;-33
2023/11/05 10:06:36;;;;;;;4.43;2.40;;;12.50;90.80;;;;;;5034706;28;20021;-30
2023/11/05 10:09:04;;;;;;;4.32;2.33;;;12.60;91.10;;;;;;5034649;28;20040;-27
2023/11/05 10:11:30;;;;;;;4.25;2.60;;;12.60;90.70;;;;;;5034856;28;20029;-30
2023/11/05 10:13:56;;;;;;;6.75;3.10;;;12.60;90.70;;;;;;5034611;28;20127;-45
2023/11/05 10:16:25;;;;;;;7.00;3.20;;;12.60;90.70;;;;;;5034593;28;20080;-44
2023/11/05 10:18:55;;;;;;;4.50;2.85;;;12.60;90.70;;;;;;5034393;28;20034;-42
2023/11/05 10:21:36;;;;;;;5.82;2.88;;;12.60;90.70;;;;;;5034413;28;20063;-45
2023/11/05 10:24:01;;;;;;;8.20;3.17;;;12.60;90.70;;;;;;5034502;28;20022;-42
2023/11/05 10:26:33;;;;;;;6.93;2.70;;;12.50;90.70;;;;;;5034846;28;20428;-46
2023/11/05 10:29:00;;;;;;;5.75;3.08;;;12.50;90.70;;;;;;5034394;28;20025;-43
2023/11/05 10:31:27;;;;;;;7.22;2.80;;;12.50;90.80;;;;;;5033707;28;20405;-45
2023/11/05 10:33:54;;;;;;;5.85;2.90;;;12.50;90.80;;;;;;5034142;28;20339;-44
2023/11/05 10:36:20;;;;;;;4.32;2.47;;;12.50;90.80;;;;;;5034300;28;20140;-45
2023/11/05 10:38:50;;;;;;;6.38;3.03;;;12.40;90.80;;;;;;5033985;28;20057;-46
2023/11/05 10:41:17;;;;;;;8.15;3.67;;;12.40;90.90;;;;;;5034274;28;20026;-47
2023/11/05 10:43:50;;;;;;;6.15;3.22;;;12.40;90.90;;;;;;5034244;28;20022;-43
2023/11/05 10:46:18;;;;;;;10.20;3.90;;;12.40;90.90;;;;;;5032655;28;20033;-45
2023/11/05 10:48:45;;;;;;;5.13;3.42;;;12.30;90.90;;;;;;5034234;28;20030;-44
2023/11/05 10:51:12;;;;;;;5.10;3.10;;;12.30;91.00;;;;;;5034129;28;20068;-44
2023/11/05 10:53:40;;;;;;;5.05;3.38;;;12.30;91.10;;;;;;5034045;28;20025;-47
2023/11/05 10:56:28;;;;;;;10.45;3.53;;;12.20;91.30;;;;;;5034131;28;20075;-45
2023/11/05 10:58:55;;;;;;;4.78;3.10;;;12.20;91.10;;;;;;5033640;28;20040;-44
2023/11/05 11:01:21;;;;;;;5.13;3.28;;;12.10;91.10;;;;;;5033290;28;20389;-44
2023/11/05 11:03:47;;;;;;;5.85;3.40;;;12.10;91.20;;;;;;5033693;28;20033;-44
2023/11/05 11:06:14;;;;;;;6.20;3.55;;;12.00;91.20;;;;;;5033793;28;20099;-45
2023/11/05 11:08:56;;;;;;;5.15;3.30;;;12.00;91.30;;;;;;5034010;28;20376;-45
2023/11/05 11:11:23;;;;;;;5.53;4.05;;;12.00;91.30;;;;;;5033979;28;20029;-45
2023/11/05 11:13:52;;;;;;;6.53;3.55;;;12.00;91.40;;;;;;5033908;28;20021;-46
2023/11/05 11:16:22;;;;;;;7.57;3.35;;;11.90;91.40;;;;;;5033856;28;20059;-46
2023/11/05 11:18:51;;;;;;;4.93;3.33;;;11.80;91.50;;;;;;5033295;28;20539;-40
2023/11/05 11:21:17;;;;;;;5.45;3.53;;;11.80;91.50;;;;;;5033724;28;20034;-44
2023/11/05 11:23:43;;;;;;;5.68;3.40;;;11.80;91.60;;;;;;5033402;28;20040;-43
2023/11/05 11:26:22;;;;;;;4.95;3.13;;;11.80;91.60;;;;;;5033330;28;20099;-44
2023/11/05 11:29:01;;;;;;;7.13;3.92;;;11.80;91.70;;;;;;5032141;28;20040;-36
2023/11/05 11:31:28;;;;;;;5.60;3.20;;;11.80;91.70;;;;;;5033144;28;20041;-35
2023/11/05 11:33:54;;;;;;;5.15;2.88;;;11.70;91.70;;;;;;5033692;28;20346;-35
2023/11/05 11:36:20;;;;;;;5.07;2.70;;;11.70;92.10;;;;;;5033469;28;20021;-36
2023/11/05 11:38:47;;;;;;;6.60;2.70;;;11.70;91.80;;;;;;5033188;28;20037;-39
2023/11/05 11:41:13;;;;;;;5.95;2.85;;;11.70;91.90;;;;;;5031831;28;20029;-35
2023/11/05 11:43:38;;;;;;;5.43;2.38;;;11.70;91.90;;;;;;5032268;28;20442;-35
2023/11/05 11:46:04;;;;;;;5.90;2.70;;;11.70;92.00;;;;;;5033309;28;20046;-36
2023/11/05 11:48:30;;;;;;;6.03;2.80;;;11.60;92.00;;;;;;5032895;28;20025;-42
2023/11/05 11:51:04;;;;;;;6.38;2.95;;;11.60;92.00;;;;;;5032701;28;20021;-37
2023/11/05 11:53:38;;;;;;;5.18;2.60;;;11.70;92.10;;;;;;5033164;28;20049;-36
2023/11/05 11:56:05;;;;;;;7.07;2.20;;;11.70;92.10;;;;;;5031356;28;20075;-35
2023/11/05 11:58:39;;;;;;;4.75;2.33;;;11.70;92.10;;;;;;5032988;28;20059;-36
2023/11/05 12:01:13;;;;;;;4.50;2.20;;;11.80;92.10;;;;;;5032461;28;20387;-35
2023/11/05 12:03:40;;;;;;;8.23;2.50;;;11.90;92.10;;;;;;5032762;28;20013;-36
2023/11/05 12:06:06;;;;;;;4.38;2.35;;;11.90;92.00;;;;;;5032624;28;20377;-35
2023/11/05 12:08:39;;;;;;;5.05;2.45;;;12.00;92.00;;;;;;5032604;28;20023;-36
2023/11/05 12:11:06;;;;;;;4.75;2.80;;;12.10;92.00;;;;;;5032540;28;20110;-34
2023/11/05 12:13:33;;;;;;;4.95;2.40;;;12.10;91.90;;;;;;5032642;28;20032;-35
2023/11/05 12:16:00;;;;;;;4.82;2.47;;;12.20;91.80;;;;;;5032782;28;20040;-36
2023/11/05 12:18:25;;;;;;;6.40;2.58;;;12.30;91.80;;;;;;5032197;28;20032;-36
2023/11/05 12:20:51;;;;;;;8.35;2.85;;;12.40;91.70;;;;;;5032292;28;20385;-33
2023/11/05 12:23:17;;;;;;;7.45;2.72;;;12.40;91.70;;;;;;5032594;28;20021;-36
2023/11/05 12:25:42;;;;;;;7.03;3.00;;;12.50;91.60;;;;;;5032243;28;20477;-35
2023/11/05 12:28:09;;;;;;;7.88;2.80;;;12.50;91.50;;;;;;5032305;28;20062;-36
2023/11/05 12:30:35;;;;;;;6.95;2.67;;;12.50;91.40;;;;;;5031972;28;20045;-35
2023/11/05 12:33:02;;;;;;;5.50;2.33;;;12.40;91.40;;;;;;5032559;28;20041;-35
2023/11/05 12:35:27;;;;;;;5.75;2.47;;;12.40;91.10;;;;;;5032486;28;20414;-36
2023/11/05 12:37:53;;;;;;;5.95;1.98;;;12.40;91.00;;;;;;5032444;28;20050;-35
2023/11/05 12:40:19;;;;;;;6.13;2.40;;;12.40;91.00;;;;;;5032136;28;20045;-37
2023/11/05 12:42:45;;;;;;;3.55;1.85;;;12.50;91.00;;;;;;5032055;28;20123;-35